Time;durP1;ratioP1;P1;durP2;ratioP2;P2;SDS_P1;SDS_P2;PMS_P1;PMS_P2;Temp;Humidity;BMP_temperature;BMP_pressure;BME280_temperature;BME280_humidity;BME280_pressure;Samples;Min_cycle;Max_cycle;Signal;HPM_P1;HPM_P2
2023/08/14 00:04:01;;;;;;;6.45;3.63;;;;;;;-145.68;100.00;73168.00;10410409;28;20198;-73
2023/08/14 00:09:02;;;;;;;5.20;3.95;;;;;;;-145.68;100.00;73172.00;10409963;28;20243;-73
2023/08/14 00:14:02;;;;;;;6.53;3.90;;;;;;;-145.68;100.00;73174.00;10396945;28;20304;-72
2023/08/14 00:19:03;;;;;;;5.97;3.80;;;;;;;-145.68;100.00;73188.00;10410945;28;20707;-72
2023/08/14 00:24:04;;;;;;;7.47;3.60;;;;;;;-145.68;100.00;73219.97;10410107;28;20212;-72
2023/08/14 00:29:04;;;;;;;4.43;3.78;;;;;;;-145.68;100.00;73227.97;10410897;28;20278;-72
2023/08/14 00:34:04;;;;;;;4.88;4.20;;;;;;;-145.68;100.00;73241.97;10409865;28;20697;-72
2023/08/14 00:39:05;;;;;;;7.32;4.22;;;;;;;-145.68;100.00;73259.94;10410887;28;20694;-72
2023/08/14 00:44:06;;;;;;;5.18;4.07;;;;;;;-145.68;100.00;73247.97;10411690;28;20236;-72
2023/08/14 00:49:07;;;;;;;10.80;4.10;;;;;;;-145.68;100.00;73259.94;10418451;28;20749;-72
2023/08/14 00:54:08;;;;;;;10.57;4.32;;;;;;;-145.68;100.00;73265.94;10416924;28;20696;-72
2023/08/14 00:59:09;;;;;;;9.75;4.00;;;;;;;-145.68;100.00;73257.94;10418402;28;20204;-72
2023/08/14 01:04:09;;;;;;;6.00;4.20;;;;;;;-145.68;100.00;73275.94;10416925;28;20204;-73
2023/08/14 01:09:11;;;;;;;5.85;4.00;;;;;;;-145.68;100.00;73267.94;10416125;28;20220;-73
2023/08/14 01:14:19;;;;;;;6.35;4.70;;;;;;;-145.68;100.00;73289.94;10415239;28;20196;-73
2023/08/14 01:19:27;;;;;;;6.18;4.10;;;;;;;-145.68;100.00;73283.94;10374918;28;20233;-73
2023/08/14 01:24:53;;;;;;;9.48;4.10;;;;;;;-145.68;100.00;73295.94;10415391;28;20275;-73
2023/08/14 01:29:57;;;;;;;6.80;4.60;;;;;;;-145.68;100.00;73305.91;10374722;28;20300;-73
2023/08/14 01:34:58;;;;;;;8.85;4.90;;;;;;;-145.68;100.00;73305.91;10374636;28;20239;-73
2023/08/14 01:40:21;;;;;;;7.03;5.53;;;;;;;-145.68;100.00;73293.94;10413065;28;20212;-73
2023/08/14 01:45:22;;;;;;;7.13;5.43;;;;;;;-145.68;100.00;73267.94;10415263;28;20717;-73
2023/08/14 01:50:24;;;;;;;8.18;4.47;;;;;;;-145.68;100.00;73257.94;10414398;28;20255;-73
2023/08/14 01:55:24;;;;;;;5.25;4.25;;;;;;;-145.68;100.00;73273.94;10414523;28;20318;-73
2023/08/14 02:00:26;;;;;;;6.90;4.90;;;;;;;-145.68;100.00;73291.94;10383986;28;20316;-73
2023/08/14 02:05:27;;;;;;;5.47;4.97;;;;;;;-145.68;100.00;73299.91;10405641;28;20696;-72
2023/08/14 02:10:30;;;;;;;5.85;4.68;;;;;;;-145.68;100.00;73333.91;10414153;28;20289;-73
2023/08/14 02:15:30;;;;;;;7.25;4.60;;;;;;;-145.68;100.00;73351.88;10413861;28;20701;-72
2023/08/14 02:20:31;;;;;;;5.45;4.63;;;;;;;-145.68;100.00;73377.88;10413696;28;20228;-72
2023/08/14 02:25:32;;;;;;;6.93;4.82;;;;;;;-145.68;100.00;73377.88;10413540;28;20284;-73
2023/08/14 02:30:35;;;;;;;6.45;5.00;;;;;;;-145.68;100.00;73391.84;10413377;28;20224;-73
2023/08/14 02:35:35;;;;;;;5.70;4.97;;;;;;;-145.68;100.00;73387.88;10413169;28;20196;-72
2023/08/14 02:40:37;;;;;;;5.95;5.10;;;;;;;-145.68;100.00;73371.88;10413391;28;20584;-73
2023/08/14 02:45:39;;;;;;;6.03;5.13;;;;;;;-145.68;100.00;73383.88;10412606;28;20629;-72
2023/08/14 02:50:40;;;;;;;5.53;4.75;;;;;;;-145.68;100.00;73379.88;10411104;28;20319;-72
2023/08/14 02:55:40;;;;;;;6.63;4.68;;;;;;;-145.68;100.00;73393.84;10413612;28;20829;-72
2023/08/14 03:00:40;;;;;;;6.43;5.22;;;;;;;-145.68;100.00;73397.84;10410761;28;20216;-73
2023/08/14 03:05:41;;;;;;;8.68;5.43;;;;;;;-145.68;100.00;73411.84;10410647;28;20350;-73
2023/08/14 03:10:41;;;;;;;6.43;5.53;;;;;;;-145.68;100.00;73411.84;10411765;28;20224;-73
2023/08/14 03:15:42;;;;;;;5.82;5.05;;;;;;;-145.68;100.00;73413.84;10412879;28;20211;-72
2023/08/14 03:20:42;;;;;;;7.03;4.85;;;;;;;-145.68;100.00;73415.84;10411294;28;20303;-72
2023/08/14 03:25:42;;;;;;;6.07;4.82;;;;;;;-145.68;100.00;73423.84;10411453;28;20192;-72
2023/08/14 03:30:43;;;;;;;6.32;4.97;;;;;;;-145.68;100.00;73405.84;10409735;28;20217;-72
2023/08/14 03:35:44;;;;;;;5.22;4.70;;;;;;;-145.68;100.00;73403.84;10411025;28;20193;-72
2023/08/14 03:40:46;;;;;;;7.32;4.97;;;;;;;-145.68;100.00;73395.84;10409625;28;20259;-72
2023/08/14 03:45:47;;;;;;;7.45;4.60;;;;;;;-145.68;100.00;73391.84;10411910;28;20272;-71
2023/08/14 03:50:50;;;;;;;5.28;4.30;;;;;;;-145.68;100.00;73391.84;10408816;28;20216;-72
2023/08/14 03:55:51;;;;;;;6.93;4.18;;;;;;;-145.68;100.00;73391.84;10411557;28;20188;-72
2023/08/14 04:00:51;;;;;;;10.75;4.50;;;;;;;-145.68;100.00;73387.88;10409461;28;20211;-72
2023/08/14 04:05:56;;;;;;;4.85;4.35;;;;;;;-145.68;100.00;73375.88;10410911;28;20283;-72
2023/08/14 04:10:57;;;;;;;5.63;4.07;;;;;;;-145.68;100.00;73377.88;10408895;28;20220;-72
2023/08/14 04:16:00;;;;;;;6.10;4.35;;;;;;;-145.68;100.00;73357.88;10411174;28;20188;-72
2023/08/14 04:21:01;;;;;;;5.13;4.03;;;;;;;-145.68;100.00;73357.88;10416969;28;20236;-72
2023/08/14 04:26:01;;;;;;;4.47;4.00;;;;;;;-145.68;100.00;73335.91;10417761;28;20246;-72
2023/08/14 04:31:02;;;;;;;5.68;4.25;;;;;;;-145.68;100.00;73299.91;10404087;28;20319;-72
2023/08/14 04:36:02;;;;;;;8.60;3.65;;;;;;;-145.68;100.00;73279.94;10417137;28;20545;-72
2023/08/14 04:41:05;;;;;;;4.40;3.80;;;;;;;-145.68;100.00;73265.94;10417509;28;20263;-72
2023/08/14 04:46:10;;;;;;;8.05;3.40;;;;;;;-145.68;100.00;73261.94;10415914;28;20199;-72
2023/08/14 04:51:11;;;;;;;5.30;3.97;;;;;;;-145.68;100.00;73271.94;10417005;28;20244;-72
2023/08/14 04:56:11;;;;;;;5.68;4.45;;;;;;;-145.68;100.00;73267.94;10415820;28;20291;-72
2023/08/14 05:01:12;;;;;;;5.88;3.97;;;;;;;-145.68;100.00;73249.94;10418025;28;20204;-72
2023/08/14 05:06:14;;;;;;;5.07;4.10;;;;;;;-145.68;100.00;73217.97;10415179;28;20184;-72
2023/08/14 05:11:14;;;;;;;9.15;3.72;;;;;;;-145.68;100.00;73205.97;10417306;28;20224;-72
2023/08/14 05:16:15;;;;;;;4.95;4.03;;;;;;;-145.68;100.00;73188.00;10417319;28;20276;-72
2023/08/14 05:21:15;;;;;;;5.80;3.60;;;;;;;-145.68;100.00;73150.03;10455493;22;20251;-69
2023/08/14 05:26:16;;;;;;;4.57;3.83;;;;;;;-145.68;100.00;73122.03;10450329;28;20188;-69
2023/08/14 05:31:16;;;;;;;4.07;3.40;;;;;;;-145.68;100.00;73084.06;10434964;28;20220;-69
2023/08/14 05:36:16;;;;;;;5.53;3.85;;;;;;;-145.68;100.00;73064.09;10435722;28;20196;-69
2023/08/14 05:41:18;;;;;;;3.78;3.47;;;;;;;-145.68;100.00;73050.09;10457318;28;20329;-69
2023/08/14 05:46:22;;;;;;;5.05;3.22;;;;;;;-145.68;100.00;73024.13;10457411;28;20601;-69
2023/08/14 05:51:22;;;;;;;9.82;3.28;;;;;;;-145.68;100.00;72986.13;10457330;28;20216;-68
2023/08/14 05:56:22;;;;;;;3.70;3.15;;;;;;;-145.68;99.37;72912.19;10457257;28;20184;-69
2023/08/14 06:01:23;;;;;;;6.20;3.22;;;;;;;-145.68;86.23;72804.28;10456708;28;20261;-68
2023/08/14 06:06:24;;;;;;;6.30;2.60;;;;;;;-145.68;78.07;72710.34;10436269;28;20227;-69
2023/08/14 06:11:24;;;;;;;5.05;2.70;;;;;;;-145.68;73.86;72608.44;10423154;28;20773;-69
2023/08/14 06:16:25;;;;;;;2.97;2.67;;;;;;;-145.68;65.72;72524.50;10423807;28;20197;-69
2023/08/14 06:21:25;;;;;;;7.90;2.65;;;;;;;-145.68;58.27;72348.66;10435052;28;20240;-69
2023/08/14 06:26:26;;;;;;;4.45;2.60;;;;;;;-145.68;57.61;72334.66;10455833;28;20196;-68
2023/08/14 06:31:26;;;;;;;3.35;2.45;;;;;;;-145.68;55.66;72246.75;10455823;28;20228;-68
2023/08/14 06:36:26;;;;;;;11.52;2.45;;;;;;;-145.68;53.27;72188.81;10455346;28;20242;-68
2023/08/14 06:41:27;;;;;;;5.35;2.70;;;;;;;-145.68;53.07;72136.84;10454726;28;20295;-68
2023/08/14 06:46:28;;;;;;;4.13;2.20;;;;;;;-145.68;50.84;72102.88;10447310;28;20280;-68
2023/08/14 06:51:28;;;;;;;5.13;2.20;;;;;;;-145.68;51.66;72190.81;10391639;28;20229;-69
2023/08/14 06:56:29;;;;;;;5.03;1.88;;;;;;;-145.68;50.41;72080.91;10372262;28;20486;-69
2023/08/14 07:01:29;;;;;;;3.92;2.53;;;;;;;-145.68;51.35;72158.84;10372849;28;20201;-68
2023/08/14 07:06:30;;;;;;;3.85;2.25;;;;;;;-145.68;49.30;72020.97;10372251;28;20189;-68
2023/08/14 07:11:38;;;;;;;3.42;2.65;;;;;;;-145.68;48.93;71991.00;10371784;28;20221;-67
2023/08/14 07:16:38;;;;;;;2.38;1.90;;;;;;;-145.68;48.65;72088.91;10372168;28;20189;-67
2023/08/14 07:21:38;;;;;;;4.32;2.30;;;;;;;-145.68;50.11;72082.91;10371684;28;20240;-68
2023/08/14 07:26:40;;;;;;;3.50;2.00;;;;;;;-145.68;48.83;72078.91;10371693;28;20255;-68
2023/08/14 07:31:40;;;;;;;3.58;2.83;;;;;;;-145.68;48.56;72052.94;10371633;28;20232;-66
2023/08/14 07:36:41;;;;;;;6.53;2.25;;;;;;;-145.68;49.78;72008.97;10371120;28;20690;-67
2023/08/14 07:41:41;;;;;;;2.57;2.10;;;;;;;-145.68;48.17;71998.97;10375825;28;20293;-68
2023/08/14 07:46:42;;;;;;;2.67;2.45;;;;;;;-145.68;47.85;71969.00;10411803;28;20439;-68
2023/08/14 07:51:42;;;;;;;4.43;2.30;;;;;;;-145.68;45.76;71783.19;10407471;28;20235;-68
2023/08/14 07:56:42;;;;;;;3.33;2.30;;;;;;;-145.68;45.91;71895.09;10411529;28;21083;-68
2023/08/14 08:01:43;;;;;;;5.03;2.22;;;;;;;-145.68;47.27;71917.06;10384265;28;20213;-68
2023/08/14 08:06:43;;;;;;;5.47;2.60;;;;;;;-145.68;47.65;72016.97;10405296;28;20197;-69
2023/08/14 08:11:43;;;;;;;5.05;2.38;;;;;;;-145.68;48.87;71937.03;10370258;28;20480;-69
2023/08/14 08:16:44;;;;;;;4.85;2.65;;;;;;;-145.68;46.21;71787.19;10370470;28;20185;-69
2023/08/14 08:21:44;;;;;;;6.47;2.45;;;;;;;-145.68;45.82;71827.16;10370121;28;20602;-68
2023/08/14 08:26:45;;;;;;;3.10;2.33;;;;;;;-145.68;45.88;71785.19;10370439;28;20203;-68
2023/08/14 08:31:45;;;;;;;3.35;2.65;;;;;;;-145.68;46.46;71893.09;10369935;28;20499;-69
2023/08/14 08:36:46;;;;;;;5.03;2.67;;;;;;;-145.68;47.90;71923.06;10370159;28;20284;-68
2023/08/14 08:41:48;;;;;;;4.60;2.50;;;;;;;-145.68;47.27;71911.06;10369894;28;20455;-69
2023/08/14 08:47:01;;;;;;;6.07;2.85;;;;;;;-145.68;50.00;72072.91;10369815;28;20949;-69
2023/08/14 08:52:05;;;;;;;8.98;2.70;;;;;;;-145.68;49.20;71941.03;10369614;28;20259;-69
2023/08/14 08:57:05;;;;;;;3.35;2.25;;;;;;;-145.68;48.24;71961.03;10368683;28;20229;-69
2023/08/14 09:02:07;;;;;;;4.30;2.85;;;;;;;-145.68;48.54;71929.06;10369505;28;20559;-68
2023/08/14 09:07:08;;;;;;;6.35;2.70;;;;;;;-145.68;48.49;72048.94;10376016;28;20197;-68
2023/08/14 09:12:08;;;;;;;4.65;2.80;;;;;;;-145.68;47.34;71955.03;10376971;28;20268;-68
2023/08/14 09:17:10;;;;;;;4.55;2.90;;;;;;;-145.68;48.14;72002.97;10376502;28;20189;-68
2023/08/14 09:22:10;;;;;;;6.22;3.00;;;;;;;-145.68;48.75;72000.97;10376612;28;20233;-69
2023/08/14 09:27:11;;;;;;;4.63;2.90;;;;;;;-145.68;49.86;71993.00;10376150;28;20189;-68
2023/08/14 09:32:11;;;;;;;6.97;2.90;;;;;;;-145.68;48.67;72032.94;10376210;28;20721;-68
2023/08/14 09:37:12;;;;;;;10.07;4.32;;;;;;;-145.68;49.00;71971.00;10375924;28;20958;-69
2023/08/14 09:42:12;;;;;;;5.47;2.80;;;;;;;-145.68;48.13;71927.06;10375679;28;20205;-68
2023/08/14 09:47:14;;;;;;;6.70;3.22;;;;;;;-145.68;49.43;72064.91;10374408;28;20201;-69
2023/08/14 09:52:14;;;;;;;4.28;2.80;;;;;;;-145.68;49.28;72020.97;10374114;28;20319;-68
2023/08/14 09:57:16;;;;;;;6.40;3.40;;;;;;;-145.68;50.68;72042.94;10375280;28;20280;-69
2023/08/14 10:02:17;;;;;;;7.53;3.17;;;;;;;-145.68;50.95;72064.91;10375015;28;20869;-69
2023/08/14 10:07:18;;;;;;;5.07;3.38;;;;;;;-145.68;49.46;71985.00;10374641;28;20190;-69
2023/08/14 10:12:22;;;;;;;4.63;3.45;;;;;;;-145.68;48.78;71901.09;10374430;28;20229;-69
2023/08/14 10:17:30;;;;;;;4.55;2.88;;;;;;;-145.68;45.54;71657.34;10373008;28;20186;-68
2023/08/14 10:22:32;;;;;;;6.07;3.25;;;;;;;-145.68;48.35;71867.13;10374086;28;20233;-70
2023/08/14 10:27:34;;;;;;;5.40;3.45;;;;;;;-145.68;49.40;71949.03;10374046;28;20222;-67
2023/08/14 10:32:34;;;;;;;4.53;3.17;;;;;;;-145.68;50.08;72036.94;10430819;28;20306;-67
2023/08/14 10:37:43;;;;;;;6.10;3.83;;;;;;;-145.68;50.96;72040.94;10441232;28;20667;-67
2023/08/14 10:42:50;;;;;;;8.02;3.38;;;;;;;-145.68;51.78;72070.91;10373162;28;20275;-68
2023/08/14 10:47:51;;;;;;;7.35;3.95;;;;;;;-145.68;52.44;72088.91;10423112;28;20194;-68
2023/08/14 10:52:53;;;;;;;9.45;3.92;;;;;;;-145.68;52.65;72130.84;10440260;28;20702;-68
2023/08/14 10:57:53;;;;;;;4.90;3.58;;;;;;;-145.68;53.66;72132.84;10448843;28;20207;-69
2023/08/14 11:03:07;;;;;;;12.70;4.20;;;;;;;-145.68;54.56;72136.84;10433534;28;20204;-69
2023/08/14 11:08:10;;;;;;;6.32;3.90;;;;;;;-145.68;54.62;72164.81;10413705;28;20227;-69
2023/08/14 11:13:11;;;;;;;6.45;3.88;;;;;;;-145.68;56.08;72186.81;10413027;28;20262;-68
2023/08/14 11:18:11;;;;;;;9.57;4.25;;;;;;;-145.68;56.63;72232.75;10412669;28;20259;-69
2023/08/14 11:23:13;;;;;;;6.63;3.90;;;;;;;-145.68;57.43;72268.72;10459730;22;20648;-72
2023/08/14 11:28:13;;;;;;;14.45;4.25;;;;;;;-145.68;58.30;72266.72;10452740;28;20199;-72
2023/08/14 11:33:14;;;;;;;6.47;4.47;;;;;;;-145.68;58.50;72272.72;10453652;28;20310;-72
2023/08/14 11:38:14;;;;;;;8.75;4.85;;;;;;;-145.68;60.02;72294.72;10453567;28;20196;-72
2023/08/14 11:43:14;;;;;;;7.90;4.57;;;;;;;-145.68;61.01;72268.72;10453011;28;20294;-72
2023/08/14 11:48:15;;;;;;;7.15;4.40;;;;;;;-145.68;60.98;72270.72;10452080;28;20570;-72
2023/08/14 11:53:15;;;;;;;8.50;4.53;;;;;;;-145.68;61.35;72276.72;10429119;28;20718;-71
2023/08/14 11:58:17;;;;;;;5.28;3.70;;;;;;;-145.68;61.83;72260.72;10410814;28;20196;-72
2023/08/14 12:03:18;;;;;;;8.27;5.07;;;;;;;-145.68;60.54;72252.75;10411368;28;20266;-72
2023/08/14 12:08:18;;;;;;;7.72;4.80;;;;;;;-145.68;60.07;72232.75;10411143;28;20200;-72
2023/08/14 12:13:21;;;;;;;9.90;4.57;;;;;;;-145.68;60.82;72226.75;10411270;28;20583;-72
2023/08/14 12:18:23;;;;;;;7.65;5.15;;;;;;;-145.68;60.54;72232.75;10411112;28;20197;-72
2023/08/14 12:23:24;;;;;;;6.63;4.70;;;;;;;-145.68;59.46;72210.78;10411217;28;20699;-72
2023/08/14 12:28:24;;;;;;;8.57;4.95;;;;;;;-145.68;59.95;72194.78;10411094;28;20197;-72
2023/08/14 12:33:25;;;;;;;11.13;4.75;;;;;;;-145.68;60.19;72176.81;10410939;28;20315;-73
2023/08/14 12:38:26;;;;;;;8.55;5.63;;;;;;;-145.68;58.93;72166.81;10412281;28;20659;-73
2023/08/14 12:43:26;;;;;;;7.63;5.05;;;;;;;-145.68;58.97;72134.84;10414056;28;20200;-72
2023/08/14 12:48:27;;;;;;;9.45;4.70;;;;;;;-145.68;56.99;72080.91;10412962;28;20199;-72
2023/08/14 12:53:27;;;;;;;7.60;4.67;;;;;;;-145.68;56.20;72034.94;10414078;28;20224;-72
2023/08/14 12:58:27;;;;;;;5.05;3.90;;;;;;;-145.68;52.34;71847.13;10414050;28;20442;-72
2023/08/14 13:03:28;;;;;;;7.35;4.30;;;;;;;-145.68;50.08;71817.16;10414699;28;20196;-72
2023/08/14 13:08:28;;;;;;;6.55;4.10;;;;;;;-145.68;50.19;71831.16;10414595;28;20204;-70
2023/08/14 13:13:29;;;;;;;6.55;4.30;;;;;;;-145.68;49.03;71741.25;10414018;28;20723;-70
2023/08/14 13:18:30;;;;;;;7.82;3.72;;;;;;;-145.68;47.52;71727.25;10414249;28;20626;-70
2023/08/14 13:23:30;;;;;;;5.55;3.63;;;;;;;-145.68;47.35;71681.31;10413569;28;20236;-70
2023/08/14 13:28:35;;;;;;;6.35;3.40;;;;;;;-145.68;46.50;71673.31;10412555;28;20192;-71
2023/08/14 13:33:35;;;;;;;6.10;3.63;;;;;;;-145.68;46.72;71687.31;10412633;28;20225;-71
2023/08/14 13:38:35;;;;;;;5.82;3.33;;;;;;;-145.68;45.91;71655.34;10407605;28;20188;-70
2023/08/14 13:43:36;;;;;;;5.50;3.88;;;;;;;-145.68;45.40;71621.38;10413064;28;20222;-71
2023/08/14 13:48:36;;;;;;;5.78;3.42;;;;;;;-145.68;44.62;71645.34;10412531;28;20188;-71
2023/08/14 13:53:37;;;;;;;9.63;3.07;;;;;;;-145.68;44.56;71579.41;10412501;28;20213;-71
2023/08/14 13:58:37;;;;;;;3.97;3.10;;;;;;;-145.68;44.72;71573.41;10412812;28;20978;-71
2023/08/14 14:03:37;;;;;;;3.30;3.00;;;;;;;-145.68;45.09;71645.34;10409709;28;20817;-71
2023/08/14 14:08:38;;;;;;;5.65;3.65;;;;;;;-145.68;45.26;71647.34;10411339;28;20800;-72
2023/08/14 14:13:38;;;;;;;7.27;3.90;;;;;;;-145.68;46.39;71713.28;10411058;28;20227;-72
2023/08/14 14:18:38;;;;;;;7.43;4.33;;;;;;;-145.68;47.89;71777.22;10411240;28;20530;-72
2023/08/14 14:23:39;;;;;;;4.60;3.60;;;;;;;-145.68;48.33;71781.19;10410484;28;20482;-72
2023/08/14 14:28:39;;;;;;;8.52;4.68;;;;;;;-145.68;46.72;71635.34;10411929;28;20188;-72
2023/08/14 14:33:39;;;;;;;5.83;3.50;;;;;;;-145.68;43.58;71473.53;10409924;28;20286;-71
2023/08/14 14:38:40;;;;;;;9.97;3.73;;;;;;;-145.68;42.29;71361.66;10410853;28;20443;-72
2023/08/14 14:43:40;;;;;;;5.05;3.88;;;;;;;-145.68;45.00;71523.47;10412216;28;20516;-72
2023/08/14 14:48:41;;;;;;;5.53;4.30;;;;;;;-145.68;44.97;71455.56;10414562;28;20331;-72
2023/08/14 14:53:41;;;;;;;5.60;3.90;;;;;;;-145.68;42.33;71217.81;10413170;28;20706;-72
2023/08/14 14:58:41;;;;;;;10.83;4.37;;;;;;;-145.68;42.10;71269.75;10413535;28;20801;-73
2023/08/14 15:03:42;;;;;;;8.07;4.70;;;;;;;-145.68;43.48;71473.53;10412452;28;20604;-73
2023/08/14 15:08:42;;;;;;;7.47;4.25;;;;;;;-145.68;44.97;71553.44;10413367;28;20193;-73
2023/08/14 15:13:43;;;;;;;7.57;3.83;;;;;;;-145.68;43.29;71389.63;10412771;28;20271;-73
2023/08/14 15:18:43;;;;;;;8.07;3.80;;;;;;;-145.68;43.80;71425.59;10412646;28;20443;-72
2023/08/14 15:23:43;;;;;;;6.13;4.80;;;;;;;-145.68;44.59;71493.50;10411536;28;20467;-73
2023/08/14 15:28:44;;;;;;;9.13;4.00;;;;;;;-145.68;44.80;71519.47;10410184;28;20443;-72
2023/08/14 15:33:44;;;;;;;6.57;4.23;;;;;;;-145.68;44.38;71497.50;10410587;28;20531;-72
2023/08/14 15:38:46;;;;;;;9.20;4.20;;;;;;;-145.68;45.08;71543.44;10411157;28;20435;-72
2023/08/14 15:43:46;;;;;;;5.53;4.25;;;;;;;-145.68;44.18;71423.59;10410672;28;20447;-72
2023/08/14 15:48:47;;;;;;;11.07;4.33;;;;;;;-145.68;43.97;71437.56;10412653;28;20193;-72
2023/08/14 15:53:47;;;;;;;6.45;4.10;;;;;;;-145.68;42.50;71371.66;10411631;28;20486;-72
2023/08/14 15:58:47;;;;;;;4.90;4.20;;;;;;;-145.68;43.27;71425.59;10411576;28;20275;-72
2023/08/14 16:03:48;;;;;;;7.00;4.13;;;;;;;-145.68;43.78;71405.59;10411723;28;20457;-71
2023/08/14 16:08:48;;;;;;;4.93;3.75;;;;;;;-145.68;42.88;71425.59;10411575;28;20446;-72
2023/08/14 16:13:48;;;;;;;14.20;4.40;;;;;;;-145.68;44.88;71545.44;10417145;28;20285;-72
2023/08/14 16:18:49;;;;;;;6.90;4.63;;;;;;;-145.68;46.62;71641.34;10424718;28;20443;-71
2023/08/14 16:23:49;;;;;;;9.32;4.97;;;;;;;-145.68;46.04;71575.41;10423192;28;20523;-71
2023/08/14 16:28:50;;;;;;;8.15;4.88;;;;;;;-145.68;46.05;71589.41;10424852;28;20192;-71
2023/08/14 16:33:50;;;;;;;9.37;5.07;;;;;;;-145.68;47.79;71679.31;10423746;28;20346;-71
2023/08/14 16:38:50;;;;;;;9.50;5.27;;;;;;;-145.68;49.09;71761.22;10423655;28;20434;-71
2023/08/14 16:43:51;;;;;;;9.95;4.75;;;;;;;-145.68;49.98;71783.19;10423423;28;20462;-71
2023/08/14 16:48:52;;;;;;;8.53;5.30;;;;;;;-145.68;49.96;71793.19;10423754;28;20192;-71
2023/08/14 16:53:52;;;;;;;10.65;5.13;;;;;;;-145.68;50.73;71781.19;10422445;28;20483;-71
2023/08/14 16:58:53;;;;;;;6.43;4.90;;;;;;;-145.68;51.54;71805.19;10423054;28;20681;-71
2023/08/14 17:03:53;;;;;;;10.43;5.47;;;;;;;-145.68;51.38;71791.19;10423541;28;20678;-71
2023/08/14 17:08:53;;;;;;;9.40;6.00;;;;;;;-145.68;52.51;71839.16;10445094;28;20794;-70
2023/08/14 17:13:54;;;;;;;9.65;5.65;;;;;;;-145.68;54.26;71905.06;10465254;28;20323;-71
2023/08/14 17:18:54;;;;;;;11.93;6.40;;;;;;;-145.68;55.88;71931.06;10464924;28;20253;-71
2023/08/14 17:23:54;;;;;;;10.00;6.40;;;;;;;-145.68;55.29;71913.06;10483115;22;20811;-68
2023/08/14 17:28:55;;;;;;;10.57;6.30;;;;;;;-145.68;56.24;71941.03;10458231;28;20967;-68
2023/08/14 17:33:55;;;;;;;11.37;6.87;;;;;;;-145.68;57.06;71961.03;10458176;28;20996;-68
2023/08/14 17:38:57;;;;;;;11.57;6.15;;;;;;;-145.68;57.72;71975.00;10458043;28;21294;-68
2023/08/14 17:43:57;;;;;;;12.15;6.45;;;;;;;-145.68;60.83;72046.94;10457729;28;20239;-69
2023/08/14 17:48:58;;;;;;;8.65;6.38;;;;;;;-145.68;62.35;72064.91;10457927;28;20286;-69
2023/08/14 17:53:58;;;;;;;8.15;5.95;;;;;;;-145.68;62.56;72056.94;10457058;28;20311;-69
2023/08/14 17:58:59;;;;;;;4.70;3.97;;;;;;;-145.68;57.87;72120.88;10457552;28;20192;-68
2023/08/14 18:03:59;;;;;;;8.40;3.75;;;;;;;-145.68;60.71;72216.78;10456864;28;20215;-68
2023/08/14 18:09:00;;;;;;;7.85;3.20;;;;;;;-145.68;61.36;72262.72;10452779;28;20192;-68
2023/08/14 18:14:00;;;;;;;3.40;2.30;;;;;;;-145.68;60.47;72280.72;10433536;28;20778;-68
2023/08/14 18:19:00;;;;;;;6.88;2.72;;;;;;;-145.68;61.70;72358.66;10435620;28;20629;-68
2023/08/14 18:24:01;;;;;;;3.88;2.22;;;;;;;-145.68;63.43;72416.59;10433770;28;20248;-68
2023/08/14 18:29:01;;;;;;;5.38;2.30;;;;;;;-145.68;66.10;72502.53;10434186;28;20188;-68
2023/08/14 18:34:02;;;;;;;7.63;2.28;;;;;;;-145.68;67.04;72506.50;10432793;28;20224;-68
2023/08/14 18:39:03;;;;;;;3.83;2.47;;;;;;;-145.68;68.11;72514.50;10431856;28;20601;-69
2023/08/14 18:44:05;;;;;;;7.75;2.50;;;;;;;-145.68;69.68;72548.47;10434131;28;20269;-68
2023/08/14 18:49:05;;;;;;;6.90;2.50;;;;;;;-145.68;71.37;72572.47;10414096;28;20192;-69
2023/08/14 18:54:06;;;;;;;8.40;3.75;;;;;;;-145.68;75.69;72648.41;10413572;28;20245;-70
2023/08/14 18:59:10;;;;;;;8.02;3.35;;;;;;;-145.68;82.33;72734.31;10413811;28;20200;-69
2023/08/14 19:04:10;;;;;;;3.75;2.85;;;;;;;-145.68;90.50;72720.34;10413335;28;20196;-69
2023/08/14 19:09:11;;;;;;;4.80;4.38;;;;;;;-145.68;92.88;72736.31;10436216;28;20300;-68
2023/08/14 19:14:12;;;;;;;7.10;2.88;;;;;;;-145.68;99.96;72788.28;10453771;28;20232;-69
2023/08/14 19:19:12;;;;;;;4.82;3.55;;;;;;;-145.68;100.00;72792.28;10453447;28;20260;-69
2023/08/14 19:24:13;;;;;;;7.30;3.75;;;;;;;-145.68;100.00;72784.28;10453383;28;20307;-69
2023/08/14 19:29:13;;;;;;;6.40;3.50;;;;;;;-145.68;100.00;72796.28;10453243;28;20252;-69
2023/08/14 19:34:14;;;;;;;16.40;4.18;;;;;;;-145.68;100.00;72784.28;10452926;28;20223;-69
2023/08/14 19:39:14;;;;;;;5.53;3.97;;;;;;;-145.68;100.00;72774.31;10453117;28;20576;-69
2023/08/14 19:44:15;;;;;;;9.48;4.50;;;;;;;-145.68;100.00;72762.31;10452682;28;20622;-69
2023/08/14 19:49:16;;;;;;;7.15;4.00;;;;;;;-145.68;100.00;72756.31;10452304;28;20196;-69
2023/08/14 19:54:16;;;;;;;4.28;3.88;;;;;;;-145.68;100.00;72758.31;10452282;28;20220;-69
2023/08/14 19:59:16;;;;;;;10.82;4.88;;;;;;;-145.68;100.00;72768.31;10431820;28;20192;-70
2023/08/14 20:04:17;;;;;;;9.60;5.28;;;;;;;-145.68;100.00;72752.31;10429631;28;20655;-69
2023/08/14 20:09:17;;;;;;;10.38;6.13;;;;;;;-145.68;100.00;72742.31;10431204;28;20282;-69
2023/08/14 20:14:18;;;;;;;7.13;6.00;;;;;;;-145.68;100.00;72742.31;10429266;28;20263;-69
2023/08/14 20:19:19;;;;;;;13.45;6.53;;;;;;;-145.68;100.00;72746.31;10429471;28;20198;-69
2023/08/14 20:24:19;;;;;;;10.93;6.75;;;;;;;-145.68;100.00;72742.31;10429103;28;20259;-68
2023/08/14 20:29:20;;;;;;;9.55;6.55;;;;;;;-145.68;100.00;72736.31;10430766;28;20213;-69
2023/08/14 20:34:20;;;;;;;10.75;6.85;;;;;;;-145.68;100.00;72748.31;10421209;28;20220;-69
2023/08/14 20:39:22;;;;;;;11.32;7.30;;;;;;;-145.68;100.00;72724.34;10435014;28;20188;-69
2023/08/14 20:44:22;;;;;;;10.38;8.07;;;;;;;-145.68;100.00;72718.34;10451312;28;20561;-69
2023/08/14 20:49:22;;;;;;;13.35;8.18;;;;;;;-145.68;100.00;72726.34;10451333;28;20275;-69
2023/08/14 20:54:23;;;;;;;12.85;8.77;;;;;;;-145.68;100.00;72752.31;10422059;28;20216;-70
2023/08/14 20:59:23;;;;;;;11.52;8.32;;;;;;;-145.68;100.00;72778.28;10411451;28;20207;-69
2023/08/14 21:04:23;;;;;;;9.98;8.98;;;;;;;-145.68;100.00;72772.31;10417458;28;20209;-69
2023/08/14 21:09:24;;;;;;;11.38;9.10;;;;;;;-145.68;100.00;72738.31;10425205;28;20200;-69
2023/08/14 21:14:24;;;;;;;17.42;9.27;;;;;;;-145.68;100.00;72702.34;10436377;28;20702;-70
2023/08/14 21:19:25;;;;;;;15.48;9.13;;;;;;;-145.68;100.00;72676.38;10438033;28;20289;-70
2023/08/14 21:24:25;;;;;;;10.85;8.75;;;;;;;-145.68;100.00;72682.38;10437699;28;20216;-69
2023/08/14 21:29:25;;;;;;;14.15;9.40;;;;;;;-145.68;100.00;72654.41;10458557;28;20608;-70
2023/08/14 21:34:27;;;;;;;9.88;8.40;;;;;;;-145.68;100.00;72632.41;10457900;28;20869;-70
2023/08/14 21:39:28;;;;;;;10.35;8.88;;;;;;;-145.68;100.00;72630.41;10458220;28;20742;-70
2023/08/14 21:44:28;;;;;;;10.20;8.52;;;;;;;-145.68;100.00;72620.41;10457886;28;20231;-70
2023/08/14 21:49:29;;;;;;;10.32;8.65;;;;;;;-145.68;100.00;72620.41;10457601;28;20196;-70
2023/08/14 21:54:29;;;;;;;11.30;9.35;;;;;;;-145.68;100.00;72636.41;10457719;28;20302;-70
2023/08/14 21:59:29;;;;;;;10.82;8.88;;;;;;;-145.68;100.00;72612.44;10457089;28;20241;-70
2023/08/14 22:04:30;;;;;;;12.23;8.25;;;;;;;-145.68;100.00;72540.50;10457337;28;20264;-70
2023/08/14 22:09:30;;;;;;;8.60;6.75;;;;;;;-145.68;93.06;72452.56;10456873;28;20257;-70
2023/08/14 22:14:30;;;;;;;6.85;5.85;;;;;;;-145.68;75.97;72300.69;10456325;28;20223;-70
2023/08/14 22:19:31;;;;;;;10.80;6.15;;;;;;;-145.68;70.96;72254.75;10456798;28;20766;-69
2023/08/14 22:24:31;;;;;;;7.20;5.63;;;;;;;-145.68;67.94;72230.75;10456028;28;20602;-68
2023/08/14 22:29:31;;;;;;;11.32;5.70;;;;;;;-145.68;66.29;72220.78;10456441;28;20188;-68
2023/08/14 22:34:32;;;;;;;8.20;5.88;;;;;;;-145.68;65.21;72220.78;10455681;28;20227;-69
2023/08/14 22:39:32;;;;;;;9.65;5.45;;;;;;;-145.68;64.62;72224.78;10455964;28;20203;-68